Elliot Chaparral Reserve, California Weather observations

Data are for 10 minute period ending at time listed.
 Day   Time   Solar   Ave.   Ave.  Ave.  Vector  Max.   Baro.   Total    
  of    of     Rad.   Air    Rel.  Wind   Wind   Wind  Press.  Precip.   
Year   Day            Temp.  Hum.  Speed  Dir.   Gust                    
2014   (PST)  Kw/m2    F      %     mph   deg.    mph    mb.     in.     
-------------------------------------------------------------------------
 234    0:10   0.00   64.6    89    2.7   330     3.9   985.8    0.00 
 234    0:20   0.00   64.7    90    2.4   314     3.3   985.8    0.00 
 234    0:30   0.00   64.6    90    3.8   326     5.3   985.7    0.00 
 234    0:40   0.00   64.6    90    3.5   345     4.5   985.5    0.00 
 234    0:50   0.00   64.7    90    2.5   330     3.9   985.5    0.00 
 234    1:00   0.00   64.7    90    2.6   317     3.4   985.5    0.00 
 234    1:10   0.00   64.7    90    2.1   327     3.1   985.5    0.00 
 234    1:20   0.00   64.5    90    1.7   351     2.1   985.4    0.00 
 234    1:30   0.00   64.5    90    2.9   351     4.6   985.3    0.00 
 234    1:40   0.00   64.4    91    4.5     5     5.3   985.3    0.00 
 234    1:50   0.00   64.4    91    4.9   359     5.6   985.3    0.00 
 234    2:00   0.00   64.4    91    1.6   350     3.9   985.4    0.00 
 234    2:10   0.00   64.4    91    1.4   283     2.7   985.5    0.00 
 234    2:20   0.00   64.4    92    2.6   297     3.4   985.5    0.00 
 234    2:30   0.00   64.3    92    2.8   308     3.9   985.5    0.00 
 234    2:40   0.00   64.0    92    3.2   346     4.1   985.3    0.00 
 234    2:50   0.00   64.0    92    4.2     0     5.8   985.1    0.00 
 234    3:00   0.00   64.1    92    4.6     3     5.8   984.9    0.00 
 234    3:10   0.00   64.0    92    3.5    22     4.5   984.9    0.00 
 234    3:20   0.00   64.0    92    3.6    21     4.6   984.9    0.00 
 234    3:30   0.00   64.0    92    2.7    19     4.2   984.9    0.00 
 234    3:40   0.00   64.0    92    2.3     1     2.7   984.9    0.00 
 234    3:50   0.00   63.9    92    1.6   351     2.0   984.9    0.00 
 234    4:00   0.00   63.8    93    2.2   342     2.9   984.9    0.00 
 234    4:10   0.00   63.8    93    3.1   354     3.5   984.9    0.00 
 234    4:20   0.00   63.8    93    1.7   356     3.6   984.9    0.00 
 234    4:30   0.00   63.9    93    0.2   356     1.1   985.0    0.00 
 234    4:40   0.00   63.8    93    1.1   110     1.8   985.1    0.00 
 234    4:50   0.00   63.6    93    1.8    44     2.8   985.1    0.00 
 234    5:00   0.00   63.8    93    4.4    22     5.7   985.0    0.00 
 234    5:10   0.00   63.8    93    5.3    45     6.8   985.0    0.00 
 234    5:20   0.00   63.5    93    4.2    55     5.0   985.2    0.00 
 234    5:30   0.00   63.7    93    2.3    88     4.2   985.4    0.00 
 234    5:40   0.02   63.7    93    2.8    95     4.1   985.5    0.00 
 234    5:50   0.05   64.3    92    2.2    82     3.1   985.5    0.00 
 234    6:00   0.08   65.1    92    2.8    79     3.2   985.6    0.00 
 234    6:10   0.10   66.1    90    2.1   113     3.1   985.6    0.00 
 234    6:20   0.13   67.0    87    1.7   117     3.1   985.6    0.00 
 234    6:30   0.16   68.8    82    1.3   152     3.1   985.7    0.00 
 234    6:40   0.20   69.2    80    1.2   187     2.4   985.8    0.00 
 234    6:50   0.23   69.8    78    2.0   203     4.0   986.0    0.00 
 234    7:00   0.27   70.0    77    3.2   191     5.3   986.0    0.00 
 234    7:10   0.30   70.3    77    3.3   198     5.3   986.1    0.00 
 234    7:20   0.34   71.9    73    1.7   237     3.7   985.9    0.00 
 234    7:30   0.37   72.5    72    3.4   203     4.8   986.1    0.00 
 234    7:40   0.41   73.0    70    4.5   207     8.3   986.2    0.00 
 234    7:50   0.44   73.3    70    3.9   188     7.3   986.2    0.00 
 234    8:00   0.47   73.6    69    5.1   194     7.9   986.2    0.00 
 234    8:10   0.51   74.7    66    3.9   236     8.3   986.2    0.00 
 234    8:20   0.54   75.0    66    3.3   261     6.4   986.3    0.00 
 234    8:30   0.57   75.1    65    5.0   243     8.7   986.3    0.00 
 234    8:40   0.60   75.8    64    4.0   280     7.5   986.2    0.00 
 234    8:50   0.63   75.8    64    4.8   263     8.3   986.2    0.00 
 234    9:00   0.66   76.7    62    3.8   276     7.3   986.1    0.00 
 234    9:10   0.69   77.0    62    4.7   261     9.5   986.0    0.00 
 234    9:20   0.71   77.5    61    5.1   278     9.6   986.0    0.00 
 234    9:30   0.74   78.0    60    4.1   278     8.0   985.9    0.00 
 234    9:40   0.76   77.9    60    6.2   264    11.1   985.9    0.00 
 234    9:50   0.78   78.8    58    8.7   298    13.2   985.9    0.00 
 234   10:00   0.80   78.7    58    8.3   289    14.6   985.8    0.00 
 234   10:10   0.82   79.1    59   10.8   281    15.1   985.7    0.00 
 234   10:20   0.84   79.0    59   10.0   291    14.3   985.7    0.00 
 234   10:30   0.85   78.7    59   10.3   310    14.1   985.6    0.00 
 234   10:40   0.87   79.2    58   10.5   288    15.1   985.6    0.00 
 234   10:50   0.88   79.6    57   10.4   291    17.6   985.5    0.00 
 234   11:00   0.89   79.8    57   10.1   273    17.6   985.5    0.00 
 234   11:10   0.90   80.3    56   10.6   272    16.6   985.5    0.00 
 234   11:20   0.91   80.3    56   10.6   283    17.1   985.5    0.00 
 234   11:30   0.92   79.8    57    9.7   276    15.6   985.5    0.00 
 234   11:40   0.92   80.0    56    9.4   287    13.2   985.5    0.00 
 234   11:50   0.89   80.3    55    8.9   274    13.9   985.4    0.00 
 234   12:00   0.93   80.3    54    9.3   269    15.8   985.3    0.00 
 234   12:10   0.93   80.6    53    9.4   270    14.1   985.3    0.00 
 234   12:20   0.92   82.5    49   11.6   280    16.5   985.2    0.00 
 234   12:30   0.92   81.7    49   10.0   274    16.7   985.2    0.00 
 234   12:40   0.91   81.8    49   10.8   273    16.9   985.1    0.00 
 234   12:50   0.90   81.9    50   12.4   280    17.5   985.0    0.00 
 234   13:00   0.90   81.2    51    9.7   276    16.3   985.0    0.00 
 234   13:10   0.89   81.6    49    9.2   287    14.3   984.9    0.00 
 234   13:20   0.87   81.6    47    8.5   269    16.0   984.8    0.00 
 234   13:30   0.85   81.7    44    8.8   276    14.5   984.7    0.00 
 234   13:40   0.84   81.8    43    8.6   291    15.5   984.7    0.00 
 234   13:50   0.82   82.9    42   10.6   265    15.4   984.7    0.00 
 234   14:00   0.80   83.0    43   10.2   287    14.7   984.7    0.00 
 234   14:10   0.78   81.9    44   10.2   285    14.5   984.6    0.00 
 234   14:20   0.75   81.4    45    9.5   283    15.9   984.4    0.00 
 234   14:30   0.73   81.5    46   11.4   284    15.9   984.4    0.00 
 234   14:40   0.70   81.6    45   11.6   296    17.5   984.3    0.00 
 234   14:50   0.68   80.7    46   10.6   289    14.7   984.4    0.00 
 234   15:00   0.65   80.7    45    9.5   288    14.8   984.4    0.00 
 234   15:10   0.62   81.0    44   10.3   282    14.8   984.5    0.00 
 234   15:20   0.59   81.3    42    9.9   270    13.7   984.5    0.00 
 234   15:30   0.56   80.8    42    9.0   279    14.0   984.5    0.00 
 234   15:40   0.53   81.4    40    8.9   264    14.3   984.4    0.00 
 234   15:50   0.50   80.1    42    8.5   267    12.3   984.5    0.00 
 234   16:00   0.46   80.1    43    8.3   278    12.2   984.6    0.00 
 234   16:10   0.43   79.8    44    7.9   278    11.9   984.6    0.00 
 234   16:20   0.39   79.9    44    8.0   282    12.5   984.6    0.00 
 234   16:30   0.35   79.6    45    6.7   296    10.2   984.7    0.00 
 234   16:40   0.32   79.6    44    7.7   269    11.5   984.7    0.00 
 234   16:50   0.28   79.1    46    7.6   280    11.3   984.7    0.00 
 234   17:00   0.25   78.7    47    6.1   290     9.8   984.5    0.00 
 234   17:10   0.22   78.5    46    6.4   289     9.0   984.4    0.00 
 234   17:20   0.18   78.4    46    5.6   283     8.5   984.4    0.00 
 234   17:30   0.15   78.5    45    6.2   287     8.4   984.4    0.00 
 234   17:40   0.12   77.5    48    6.5   282     7.9   984.4    0.00 
 234   17:50   0.09   77.0    50    6.6   294    10.4   984.4    0.00 
 234   18:00   0.06   76.0    55    6.9   296     9.3   984.4    0.00 
 234   18:10   0.03   74.5    60    7.5   308     9.1   984.5    0.00 
 234   18:20   0.01   73.3    63    6.9   318     9.1   984.6    0.00 
 234   18:30   0.00   71.8    68    7.8   315    10.4   984.8    0.00 
 234   18:40   0.00   70.4    72    7.2   319    10.2   984.9    0.00 
 234   18:50   0.00   69.4    76    6.4   310     8.8   985.0    0.00 
 234   19:00   0.00   68.6    78    6.0   305     8.0   985.0    0.00 
 234   19:10   0.00   67.9    79    6.0   299     7.7   985.1    0.00 
 234   19:20   0.00   67.5    81    5.7   303     7.5   985.2    0.00 
 234   19:30   0.00   67.1    81    4.5   315     6.9   985.2    0.00 
 234   19:40   0.00   66.8    82    6.2   317     8.5   985.2    0.00 
 234   19:50   0.00   66.6    84    6.4   320     8.3   985.3    0.00 
 234   20:00   0.00   66.3    85    5.2   326     7.1   985.5    0.00 
 234   20:10   0.00   65.9    86    4.2   328     6.1   985.7    0.00 
 234   20:20   0.00   65.5    86    4.0   331     5.0   985.7    0.00 
 234   20:30   0.00   65.3    87    4.9   337     6.6   985.8    0.00 
 234   20:40   0.00   65.0    87    4.0   333     5.5   985.8    0.00 
 234   20:50   0.00   64.9    88    2.8   340     4.5   985.8    0.00 
 234   21:00   0.00   64.9    88    0.2   341     1.5   985.8    0.00 
 234   21:10   0.00   64.9    88    0.6   340     1.5   985.8    0.00 
 234   21:20   0.00   64.9    88    2.1   337     2.6   985.8    0.00 
 234   21:30   0.00   64.6    88    2.9   330     3.6   985.8    0.00 
 234   21:40   0.00   64.4    89    2.5   333     3.3   985.7    0.00 
 234   21:50   0.00   64.3    89    3.0   341     3.4   985.7    0.00 
 234   22:00   0.00   64.1    89    4.1   345     5.9   985.8    0.00 
 234   22:10   0.00   63.9    90    6.3   348     7.8   985.8    0.00 
 234   22:20   0.00   63.8    90    5.5   338     6.4   985.9    0.00 
 234   22:30   0.00   63.7    90    5.9   336     6.8   985.9    0.00 
 234   22:40   0.00   63.6    91    5.1   333     6.8   985.9    0.00 
 234   22:50   0.00   63.4    91    4.8   330     6.1   985.9    0.00 
 234   23:00   0.00   63.4    92    5.1   339     6.5   985.7    0.00 
 234   23:10   0.00   63.3    92    5.2   346     6.3   985.6    0.00 
 234   23:20   0.00   63.5    92    5.9   344     7.5   985.6    0.00 
 234   23:30   0.00   63.4    92    3.5   353     6.5   985.5    0.00 
 234   23:40   0.00   63.2    92    2.0     1     3.7   985.5    0.00 
 234   23:50   0.00   63.3    93    1.1   322     2.0   985.4    0.00 
 235    0:00   0.00   63.4    92    2.1   303     3.9   985.2    0.00 

Return to Elliot Chaparral Reserve graphs page.


Western Regional Climate Center,wrcc@dri.edu